Language selection

My Weather Profile Weather Topics  | 

Lake Nipigon: Past 24 Hour Conditions

 

Geraldton Airport

06:00 PM EST 20 January 2021
Disclaimer

This table is a summary of hourly weather conditions for the past 24 hours.
Please note that these observations might not always be representative of weather conditions over their associated marine area.

Date / Time
(EST)
Wind(knots) Conditions Visibility(km) Pressure(kPa) Air tempC) Relative humidity(%) Dew pointC) Wind Chill
20 January 2021
18:00 S 9 gust 16 Light Snow and Blowing Snow 0.4 99.1 -5 88 -7 -11
17:00 S 13 gust 25 Light Snow 10 99.3 -5 76 -9 -12
16:00 SSE 17 gust 25 Light Snow 19 99.4 -5 76 -9 -14
15:00 S 17 gust 26 Light Snow 13 99.6 -6 76 -9 -14
14:00 S 14 gust 22 Light Snow and Blowing Snow 2 99.9 -6 79 -9 -14
13:00 S 10 Light Snow 2 100.2 -9 85 -11 -16
12:00 S 8 Light Snow 5 100.4 -11 85 -13 -17
11:00 S 7 Light Snow 24 100.7 -13 82 -16 -20
10:00 S 8 Mostly Cloudy 24 100.8 -16 84 -18 -24
9:00 S 6 Light Snow 16 101.1 -19 84 -21 -26
8:00 S 5 Light Snow 13 101.2 -21 82 -23 -28
7:00 S 5 Mostly Cloudy 24 101.3 -22 80 -25 -30
6:00 S 5 Mostly Cloudy 24 101.4 -23 79 -26 -31
5:00 S 5 Light Snow 24 101.5 -24 78 -26 -32
4:00 S 5 Light Snow 24 101.7 -24 78 -27 -32
3:00 SSW 3 Light Snow 24 101.8 -26 78 -29 -31
2:00 SSW 2 Light Snow 24 101.9 -27 77 -30 -31
1:00 SW 3 Partly Cloudy 24 101.9 -29 78 -32 -35
0:00 SSW 3 Mainly Clear 24 102.0 -28 79 -30 -34
19 January 2021
23:00 SW 4 Clear 24 102.0 -27 79 -29 -34
22:00 WSW 4 Partly Cloudy 24 102.1 -25 80 -28 -32
21:00 W 4 Light Snow 24 102.1 -23 76 -26 -29
20:00 NW 8 Light Snow 24 102.2 -22 73 -26 -31
19:00 WNW 4 Light Snow 13 102.2 -22 72 -25 -28
18:00 WNW 4 Light Snow 13 102.2 -21 73 -25 -27

Zoom-in to make a selection

Map of Great Lakes - Lake Superior marine weather areas Mid Superior - 45001 East Superior - 45004 West Superior - 45006 Slate Island - 45136 Lake Of the Woods - 45148 Kenora Airport Royal Island Armstrong Airport Caribou Island Marathon Airport Pukaskwa National Park Thunder Bay Airport Welcome Island Little Flatland Island Sault Ste. Marie Airport Wawa Airport
Legend:
buoy Buoy
land station Land Station

Great Lakes - Lake Superior Area

Another Region

What we are doing

Features

Need to travel Alberta Highway 93?

Go prepared with Highway 93 forecasts. Highway regions are available in the Alberta text forecast bulletin between Lake Louise and Jasper. (Photo by: Natalie Anderson)

Date modified: